Time;durP1;ratioP1;P1;durP2;ratioP2;P2;SDS_P1;SDS_P2;PMS_P1;PMS_P2;Temp;Humidity;BMP_temperature;BMP_pressure;BME280_temperature;BME280_humidity;BME280_pressure;Samples;Min_cycle;Max_cycle;Signal;HPM_P1;HPM_P2
2023/11/07 00:01:43;;;;;;;1.53;0.83;;;10.50;99.90;;;10.74;88.35;100087.03;4736605;30;20438;-68
2023/11/07 00:04:13;;;;;;;1.33;0.77;;;10.60;99.90;;;10.75;88.53;100090.53;4735464;30;20482;-68
2023/11/07 00:06:42;;;;;;;2.40;1.57;;;10.60;99.90;;;10.73;88.06;100088.06;4737057;30;20477;-69
2023/11/07 00:09:12;;;;;;;0.97;0.63;;;10.60;99.90;;;10.65;88.46;100093.75;4736668;30;20470;-67
2023/11/07 00:11:41;;;;;;;0.90;0.60;;;10.60;99.90;;;10.67;88.81;100097.06;4749772;30;20453;-69
2023/11/07 00:14:12;;;;;;;1.07;0.70;;;10.50;99.90;;;10.56;89.00;100103.19;4737576;30;20470;-68
2023/11/07 00:16:41;;;;;;;2.93;2.70;;;10.50;99.90;;;10.48;89.46;100108.06;4740248;30;20450;-69
2023/11/07 00:19:10;;;;;;;0.90;0.60;;;10.40;1.00;;;10.39;89.87;100111.06;4741096;30;20869;-68
2023/11/07 00:21:39;;;;;;;0.90;0.60;;;10.30;99.90;;;10.22;90.42;100109.09;4740422;30;20827;-68
2023/11/07 00:24:09;;;;;;;1.77;0.70;;;10.20;1.00;;;10.06;91.36;100115.84;4739601;30;20465;-65
2023/11/07 00:26:38;;;;;;;1.33;0.70;;;10.10;1.00;;;10.09;90.93;100120.78;4735921;30;20497;-67
2023/11/07 00:29:07;;;;;;;1.38;0.70;;;10.10;1.00;;;9.91;91.61;100113.44;4733309;30;20473;-69
2023/11/07 00:31:37;;;;;;;1.90;0.70;;;10.00;1.00;;;9.82;93.28;100125.53;4734269;30;20215;-69
2023/11/07 00:34:07;;;;;;;2.20;0.50;;;9.90;1.00;;;9.77;93.80;100125.34;4732564;30;20228;-68
2023/11/07 00:36:37;;;;;;;3.10;0.70;;;9.80;1.00;;;9.61;94.49;100128.53;4749133;30;20462;-68
2023/11/07 00:39:08;;;;;;;3.37;3.07;;;9.70;44.60;;;9.71;94.45;100134.31;4734692;30;20443;-68
2023/11/07 00:41:39;;;;;;;1.20;0.68;;;9.70;99.90;;;9.54;95.53;100143.94;4733521;30;21019;-68
2023/11/07 00:44:08;;;;;;;1.00;0.60;;;9.60;99.90;;;9.49;95.86;100141.03;4735652;30;20224;-67
2023/11/07 00:46:38;;;;;;;1.20;0.95;;;9.60;99.90;;;9.37;96.99;100150.84;4736108;30;20196;-69
2023/11/07 00:49:07;;;;;;;1.33;0.60;;;9.50;1.00;;;9.39;96.84;100152.28;4734331;30;20782;-68
2023/11/07 00:51:37;;;;;;;1.42;0.80;;;9.40;1.00;;;9.47;96.90;100153.94;4734438;30;20208;-67
2023/11/07 00:54:10;;;;;;;0.80;0.52;;;9.40;1.00;;;9.37;97.17;100156.25;4736188;30;20702;-67
2023/11/07 00:56:42;;;;;;;3.65;1.77;;;9.40;1.00;;;9.32;97.83;100162.28;4735065;30;20287;-66
2023/11/07 00:59:11;;;;;;;1.90;0.90;;;9.40;1.00;;;9.14;98.62;100160.25;4749381;30;20286;-67
2023/11/07 01:01:42;;;;;;;1.38;0.93;;;9.30;1.00;;;9.19;98.94;100165.03;4736371;30;20211;-68
2023/11/07 01:04:11;;;;;;;2.35;0.60;;;9.30;1.00;;;9.18;100.00;100170.63;4734235;30;20235;-67
2023/11/07 01:06:40;;;;;;;0.90;0.60;;;9.20;20.00;;;9.16;100.00;100163.56;4730497;30;20377;-67
2023/11/07 01:09:11;;;;;;;1.58;0.80;;;9.20;99.90;;;8.99;100.00;100170.44;4737237;30;20204;-66
2023/11/07 01:11:41;;;;;;;1.00;0.80;;;9.10;99.90;;;8.92;100.00;100166.09;4733962;30;20761;-68
2023/11/07 01:14:10;;;;;;;1.85;0.80;;;9.10;99.90;;;8.85;100.00;100168.81;4734107;30;20254;-67
2023/11/07 01:16:41;;;;;;;1.02;0.80;;;9.00;1.00;;;8.81;100.00;100174.81;4735783;30;20219;-66
2023/11/07 01:19:11;;;;;;;2.92;0.80;;;9.00;1.00;;;8.70;100.00;100176.28;4735973;30;20204;-68
2023/11/07 01:21:40;;;;;;;0.98;0.75;;;8.90;99.90;;;8.84;100.00;100172.53;4733807;30;20227;-67
2023/11/07 01:24:10;;;;;;;1.58;0.60;;;8.90;99.90;;;8.73;100.00;100178.53;4736885;30;20266;-68
2023/11/07 01:26:39;;;;;;;1.10;0.63;;;8.90;99.90;;;8.66;100.00;100181.25;4744221;30;20223;-68
2023/11/07 01:29:09;;;;;;;2.10;0.95;;;8.80;99.90;;;8.71;100.00;100186.03;4752162;30;20582;-69
2023/11/07 01:32:06;;;;;;;1.10;0.70;;;8.80;99.90;;;8.65;100.00;100184.16;4738610;30;20591;-68
2023/11/07 01:34:36;;;;;;;2.03;0.60;;;8.70;99.90;;;8.56;100.00;100186.22;4740265;30;20252;-68
2023/11/07 01:37:06;;;;;;;1.10;0.70;;;8.70;1.00;;;8.52;100.00;100186.84;4740162;30;20208;-68
2023/11/07 01:39:35;;;;;;;3.38;0.60;;;8.60;1.00;;;8.50;100.00;100191.59;4757427;30;20214;-68
2023/11/07 01:42:08;;;;;;;1.08;0.70;;;8.60;1.00;;;8.38;100.00;100185.97;4741620;30;20188;-68
2023/11/07 01:44:39;;;;;;;0.90;0.60;;;8.60;1.00;;;8.51;100.00;100194.09;4746824;30;20270;-68
2023/11/07 01:47:10;;;;;;;1.27;0.80;;;8.60;1.00;;;8.39;100.00;100192.19;4745308;30;20210;-70
2023/11/07 01:49:39;;;;;;;1.10;0.60;;;8.60;1.00;;;8.48;100.00;100193.66;4744015;30;20211;-69
2023/11/07 01:52:09;;;;;;;1.80;0.90;;;8.50;44.80;;;8.28;100.00;100186.34;4758219;30;20200;-69
2023/11/07 01:54:41;;;;;;;6.10;0.75;;;8.50;2.60;;;8.40;100.00;100191.19;4749504;30;20286;-69
2023/11/07 01:57:10;;;;;;;0.90;0.70;;;8.50;92.30;;;8.42;100.00;100192.66;4737130;30;20622;-66
2023/11/07 01:59:40;;;;;;;1.77;0.73;;;8.50;99.90;;;8.43;100.00;100199.69;4751930;30;20208;-69
2023/11/07 02:02:17;;;;;;;0.90;0.70;;;8.50;99.90;;;8.40;100.00;100194.69;4738386;30;20691;-67
2023/11/07 02:04:47;;;;;;;1.33;0.80;;;8.50;99.90;;;8.42;100.00;100198.03;4739879;30;20224;-69
2023/11/07 02:07:18;;;;;;;2.85;1.02;;;8.50;99.90;;;8.45;100.00;100192.22;4753812;30;20239;-68
2023/11/07 02:09:47;;;;;;;1.00;0.60;;;8.50;99.90;;;8.37;100.00;100191.59;4740629;30;20208;-69
2023/11/07 02:12:16;;;;;;;1.00;0.70;;;8.40;99.90;;;8.41;100.00;100195.53;4753424;30;20235;-69
2023/11/07 02:14:45;;;;;;;0.80;0.50;;;8.50;99.90;;;8.41;100.00;100198.22;4737372;30;20263;-67
2023/11/07 02:21:52;;;;;;;0.80;0.50;;;8.50;99.90;;;8.28;100.00;100190.91;4742008;30;20195;-69
2023/11/07 02:24:23;;;;;;;0.90;0.60;;;8.40;99.90;;;8.26;100.00;100199.22;4745119;30;20229;-68
2023/11/07 02:26:55;;;;;;;5.88;0.80;;;8.40;99.90;;;8.39;100.00;100203.81;4768536;30;20250;-67
2023/11/07 02:29:24;;;;;;;1.85;0.80;;;8.40;99.90;;;8.13;100.00;100193.78;4753561;30;20295;-69
2023/11/07 02:31:56;;;;;;;1.13;0.70;;;8.30;99.90;;;8.26;100.00;100196.53;4762979;30;20223;-69
2023/11/07 02:34:28;;;;;;;3.50;1.70;;;8.30;99.90;;;8.23;100.00;100198.78;4744337;30;20228;-68
2023/11/07 02:36:57;;;;;;;2.20;0.70;;;8.30;99.90;;;8.17;100.00;100202.31;4744588;30;20216;-69
2023/11/07 02:39:27;;;;;;;0.90;0.63;;;8.30;99.90;;;8.09;100.00;100208.69;4743890;30;20204;-68
2023/11/07 02:41:56;;;;;;;1.00;0.90;;;8.20;99.90;;;8.23;100.00;100210.38;4749746;30;20212;-69
2023/11/07 02:44:25;;;;;;;0.93;0.73;;;8.30;1.00;;;8.27;100.00;100217.06;4743799;30;20228;-68
2023/11/07 02:46:55;;;;;;;1.00;0.60;;;8.30;99.90;;;8.36;100.00;100214.19;4757022;30;20228;-69
2023/11/07 02:49:24;;;;;;;1.20;0.82;;;8.30;99.90;;;8.37;100.00;100218.56;4740728;30;20208;-69
2023/11/07 02:51:54;;;;;;;1.83;1.40;;;8.40;99.90;;;8.27;100.00;100214.34;4738723;30;20219;-69
2023/11/07 02:54:23;;;;;;;1.33;0.70;;;8.30;99.90;;;8.29;100.00;100220.38;4737344;30;20746;-68
2023/11/07 02:56:53;;;;;;;1.80;0.77;;;8.30;99.90;;;8.16;100.00;100219.50;4738131;30;20552;-68
2023/11/07 02:59:23;;;;;;;0.90;0.65;;;8.30;99.90;;;8.23;100.00;100225.72;4737049;30;20514;-69
2023/11/07 03:01:52;;;;;;;1.20;1.10;;;8.20;99.90;;;8.30;100.00;100226.63;4735873;30;20207;-68
2023/11/07 03:04:21;;;;;;;1.00;0.60;;;8.30;99.90;;;8.25;100.00;100229.88;4734127;30;20248;-68
2023/11/07 03:06:52;;;;;;;1.20;0.70;;;8.30;99.90;;;8.13;100.00;100231.50;4737240;30;20194;-68
2023/11/07 03:09:21;;;;;;;1.10;0.70;;;8.20;99.90;;;8.20;100.00;100231.53;4735509;30;20691;-69
2023/11/07 03:11:52;;;;;;;1.42;0.85;;;8.20;99.90;;;8.15;100.00;100226.75;4750716;30;20282;-69
2023/11/07 03:14:24;;;;;;;1.00;0.68;;;8.20;99.90;;;8.16;100.00;100224.88;4736288;30;20274;-68
2023/11/07 03:16:53;;;;;;;1.10;0.60;;;8.20;1.00;;;8.24;100.00;100227.38;4735518;30;20204;-68
2023/11/07 03:19:24;;;;;;;1.00;0.60;;;8.20;99.90;;;8.23;100.00;100226.56;4736684;30;20216;-67
2023/11/07 03:21:53;;;;;;;1.48;0.82;;;8.30;99.90;;;8.17;100.00;100227.38;4735644;30;20303;-68
2023/11/07 03:24:22;;;;;;;1.00;0.60;;;8.20;99.90;;;8.30;100.00;100234.69;4749363;30;20228;-68
2023/11/07 03:26:52;;;;;;;1.05;0.65;;;8.30;99.90;;;8.20;100.00;100235.06;4734999;30;20274;-67
2023/11/07 03:29:21;;;;;;;5.78;0.88;;;8.30;99.90;;;8.20;100.00;100237.75;4730016;30;20208;-67
2023/11/07 03:31:52;;;;;;;4.00;0.75;;;8.30;99.90;;;8.41;100.00;100239.50;4736948;30;20306;-68
2023/11/07 03:34:22;;;;;;;10.02;0.80;;;8.40;99.90;;;8.37;100.00;100240.13;4736960;30;20247;-68
2023/11/07 03:36:51;;;;;;;3.38;0.80;;;8.40;1.00;;;8.27;100.00;100238.63;4736791;30;20549;-68
2023/11/07 03:39:21;;;;;;;1.35;1.15;;;8.30;1.00;;;8.34;100.00;100244.03;4736522;30;20236;-69
2023/11/07 03:41:50;;;;;;;1.20;0.80;;;8.40;1.00;;;8.23;100.00;100237.34;4738298;30;20231;-68
2023/11/07 03:44:22;;;;;;;2.72;0.63;;;8.30;1.00;;;8.19;100.00;100254.94;4738143;30;20247;-67
2023/11/07 03:46:53;;;;;;;1.05;0.63;;;8.30;1.00;;;8.16;100.00;100249.13;4738995;30;20287;-67
2023/11/07 03:49:22;;;;;;;0.80;0.50;;;8.30;15.30;;;8.20;100.00;100248.53;4737037;30;20282;-66
2023/11/07 03:51:51;;;;;;;1.33;1.10;;;8.30;99.90;;;8.11;100.00;100248.91;4736749;30;20212;-67
2023/11/07 03:54:23;;;;;;;1.20;0.70;;;8.20;99.90;;;8.25;100.00;100256.00;4736942;30;20220;-68
2023/11/07 03:56:52;;;;;;;1.70;0.70;;;8.20;99.90;;;8.27;100.00;100259.34;4736556;30;20260;-67
2023/11/07 03:59:23;;;;;;;1.52;0.50;;;8.20;99.90;;;8.18;100.00;100255.97;4736379;30;20207;-68
2023/11/07 04:01:52;;;;;;;0.90;0.60;;;8.20;99.90;;;8.12;100.00;100262.19;4736496;30;20193;-67
2023/11/07 04:04:21;;;;;;;1.17;0.68;;;8.20;99.90;;;8.07;100.00;100264.66;4736385;30;20310;-67
2023/11/07 04:06:50;;;;;;;0.90;0.60;;;8.20;99.90;;;8.00;100.00;100263.78;4735901;30;20295;-68
2023/11/07 04:09:21;;;;;;;1.10;0.80;;;8.10;99.90;;;7.97;100.00;100255.28;4734752;30;20272;-67
2023/11/07 04:11:49;;;;;;;3.15;0.60;;;8.10;99.90;;;7.99;100.00;100259.44;4733335;30;20220;-67
2023/11/07 04:14:18;;;;;;;0.90;0.60;;;8.10;1.00;;;7.93;100.00;100260.25;4735669;30;20228;-67
2023/11/07 04:16:49;;;;;;;1.10;0.70;;;8.00;1.00;;;8.12;100.00;100264.88;4736142;30;20266;-66
2023/11/07 04:19:18;;;;;;;1.55;1.00;;;8.10;1.00;;;7.97;100.00;100268.75;4736290;30;20204;-68
2023/11/07 04:21:47;;;;;;;1.08;0.75;;;8.00;99.90;;;7.98;100.00;100256.94;4735824;30;20250;-65
2023/11/07 04:24:16;;;;;;;7.55;0.70;;;8.00;1.00;;;7.93;100.00;100262.09;4735745;30;20227;-67
2023/11/07 04:26:49;;;;;;;1.83;1.33;;;8.00;1.00;;;7.95;100.00;100258.16;4731614;30;20749;-66
2023/11/07 04:29:19;;;;;;;1.05;0.95;;;8.00;1.00;;;7.93;100.00;100262.94;4735636;30;20283;-66
2023/11/07 04:31:49;;;;;;;2.42;1.00;;;8.00;1.00;;;7.93;100.00;100265.63;4736045;30;20740;-65
2023/11/07 04:34:18;;;;;;;2.10;0.90;;;8.00;1.00;;;7.83;100.00;100268.69;4736025;30;20260;-69
2023/11/07 04:36:47;;;;;;;0.95;0.68;;;7.90;1.00;;;7.85;100.00;100281.94;4732950;30;20231;-69
2023/11/07 04:39:16;;;;;;;1.25;0.60;;;7.90;1.00;;;7.91;100.00;100281.16;4733146;30;20211;-69
2023/11/07 04:41:45;;;;;;;4.32;0.85;;;7.90;1.00;;;7.88;100.00;100281.56;4735869;30;20200;-69
2023/11/07 04:44:16;;;;;;;1.85;1.02;;;8.00;1.00;;;7.86;100.00;100284.44;4732889;30;20235;-69
2023/11/07 04:46:45;;;;;;;0.80;0.60;;;7.90;1.00;;;7.86;100.00;100283.63;4736295;30;20250;-68
2023/11/07 04:49:15;;;;;;;1.30;0.75;;;7.90;1.00;;;7.76;100.00;100280.44;4740423;30;20204;-68
2023/11/07 04:51:45;;;;;;;1.42;0.90;;;7.90;1.00;;;7.97;100.00;100280.38;4753145;30;20755;-69
2023/11/07 04:54:14;;;;;;;4.95;1.15;;;7.90;1.00;;;7.89;100.00;100277.03;4735002;30;20252;-68
2023/11/07 04:56:44;;;;;;;0.90;0.60;;;7.90;1.00;;;7.80;100.00;100292.50;4736215;30;20204;-67
2023/11/07 04:59:13;;;;;;;1.13;0.70;;;7.90;1.00;;;7.73;100.00;100291.63;4735262;30;20291;-67
2023/11/07 05:01:45;;;;;;;1.30;0.70;;;7.90;1.00;;;7.90;100.00;100290.25;4735504;30;20258;-69
2023/11/07 05:04:15;;;;;;;2.45;1.20;;;7.90;1.00;;;7.91;100.00;100291.94;4748555;30;20258;-69
2023/11/07 05:06:45;;;;;;;1.30;0.80;;;7.90;1.00;;;7.79;100.00;100283.56;4734751;30;20258;-68
2023/11/07 05:09:14;;;;;;;2.70;2.08;;;7.90;1.00;;;7.80;100.00;100289.78;4735384;30;20571;-68
2023/11/07 05:11:43;;;;;;;0.90;0.60;;;7.80;1.00;;;7.82;100.00;100280.50;4735020;30;20215;-68
2023/11/07 05:14:12;;;;;;;0.90;0.60;;;7.90;1.00;;;7.83;100.00;100284.88;4734714;30;20235;-68
2023/11/07 05:16:42;;;;;;;0.80;0.50;;;7.90;1.00;;;7.96;100.00;100286.78;4734808;30;20234;-68
2023/11/07 05:19:14;;;;;;;1.10;0.80;;;8.00;1.00;;;8.00;100.00;100279.97;4734484;30;20300;-68
2023/11/07 05:21:45;;;;;;;1.40;0.57;;;8.00;1.00;;;7.88;100.00;100286.97;4734899;30;20207;-69
2023/11/07 05:24:14;;;;;;;1.20;1.00;;;8.00;99.90;;;7.90;100.00;100284.03;4734725;30;20228;-67
2023/11/07 05:26:43;;;;;;;1.40;1.30;;;8.00;99.90;;;7.90;100.00;100287.56;4734900;30;20274;-69
2023/11/07 05:29:14;;;;;;;2.25;1.05;;;7.90;99.90;;;7.87;100.00;100287.97;4732494;30;20204;-67
2023/11/07 05:31:46;;;;;;;1.95;0.82;;;7.90;99.90;;;7.97;100.00;100295.69;4735010;30;20216;-69
2023/11/07 05:34:15;;;;;;;0.90;0.50;;;8.00;99.90;;;7.85;100.00;100304.34;4734853;30;20220;-69
2023/11/07 05:36:46;;;;;;;1.35;0.90;;;7.90;99.90;;;7.97;100.00;100295.69;4734066;30;20196;-66
2023/11/07 05:39:17;;;;;;;1.52;1.02;;;8.00;99.90;;;7.95;100.00;100295.06;4734833;30;20759;-69
2023/11/07 05:41:47;;;;;;;1.00;0.60;;;8.00;99.90;;;7.85;100.00;100300.81;4734879;30;20256;-69
2023/11/07 05:44:16;;;;;;;2.63;2.40;;;7.90;99.90;;;7.96;100.00;100305.63;4734574;30;20723;-68
2023/11/07 05:46:45;;;;;;;1.55;1.05;;;7.90;99.90;;;7.86;100.00;100306.00;4734962;30;20203;-69
2023/11/07 05:49:14;;;;;;;1.17;0.70;;;7.90;99.90;;;7.94;100.00;100318.47;4734325;30;20212;-69
2023/11/07 05:51:45;;;;;;;1.85;1.40;;;7.90;99.90;;;7.82;100.00;100312.00;4734350;30;20283;-68
2023/11/07 05:54:15;;;;;;;2.38;0.65;;;7.90;99.90;;;7.81;100.00;100318.41;4734485;30;20641;-68
2023/11/07 05:56:44;;;;;;;1.10;0.75;;;7.90;1.00;;;7.90;100.00;100322.59;4733159;30;20774;-69
2023/11/07 05:59:13;;;;;;;1.58;1.00;;;7.90;1.00;;;7.95;100.00;100324.69;4734455;30;20684;-68
2023/11/07 06:01:42;;;;;;;1.20;0.70;;;7.90;1.00;;;7.76;100.00;100329.78;4734507;30;20207;-69
2023/11/07 06:04:30;;;;;;;1.83;0.77;;;7.90;1.00;;;7.94;100.00;100333.81;4736010;30;20611;-65
2023/11/07 06:07:01;;;;;;;1.52;0.80;;;7.90;1.00;;;8.04;100.00;100328.88;4735632;30;20487;-68
2023/11/07 06:09:31;;;;;;;1.05;0.73;;;8.00;1.00;;;8.02;100.00;100336.34;4734623;30;20287;-68
2023/11/07 06:12:00;;;;;;;4.32;1.00;;;8.00;1.00;;;8.00;100.00;100333.84;4734929;30;20223;-68
2023/11/07 06:14:29;;;;;;;1.58;0.98;;;8.00;1.00;;;8.04;100.00;100335.09;4748030;30;20228;-69
2023/11/07 06:16:58;;;;;;;1.42;0.70;;;8.10;1.00;;;8.01;100.00;100346.28;4734643;30;20192;-66
2023/11/07 06:19:30;;;;;;;1.08;0.60;;;8.10;99.90;;;8.05;100.00;100346.72;4732332;30;20289;-69
2023/11/07 06:22:00;;;;;;;2.10;0.80;;;8.10;1.00;;;7.97;100.00;100339.66;4734192;30;20207;-66
2023/11/07 06:24:29;;;;;;;1.10;0.70;;;8.00;1.00;;;8.02;100.00;100356.03;4734062;30;20286;-68
2023/11/07 06:26:59;;;;;;;2.00;1.00;;;8.00;1.00;;;8.10;100.00;100345.09;4734178;30;20212;-67
2023/11/07 06:29:28;;;;;;;1.08;0.80;;;8.10;1.00;;;8.02;100.00;100352.50;4734180;30;20224;-67
2023/11/07 06:31:57;;;;;;;3.25;0.95;;;8.10;1.00;;;8.10;100.00;100352.34;4734476;30;20295;-68
2023/11/07 06:34:26;;;;;;;4.00;0.88;;;8.10;1.00;;;8.06;100.00;100360.00;4733140;30;20588;-67
2023/11/07 06:36:55;;;;;;;2.05;1.08;;;8.10;1.00;;;7.99;100.00;100359.13;4733913;30;20590;-68
2023/11/07 06:39:27;;;;;;;1.52;0.90;;;8.00;1.00;;;8.12;100.00;100358.38;4734158;30;20208;-68
2023/11/07 06:41:56;;;;;;;3.13;1.15;;;8.10;1.00;;;8.11;100.00;100362.94;4734205;30;20196;-69
2023/11/07 06:44:26;;;;;;;4.18;0.85;;;8.10;1.00;;;8.07;100.00;100372.44;4733953;30;20220;-68
2023/11/07 06:46:55;;;;;;;1.50;0.98;;;8.10;1.00;;;8.15;100.00;100363.34;4734073;30;20683;-68
2023/11/07 06:49:25;;;;;;;1.10;1.00;;;8.10;1.00;;;7.98;100.00;100367.41;4733770;30;20280;-70
2023/11/07 06:51:54;;;;;;;1.60;0.90;;;8.10;1.00;;;8.08;100.00;100370.59;4734151;30;20281;-68
2023/11/07 06:54:23;;;;;;;1.65;0.93;;;8.10;1.00;;;8.25;100.00;100372.75;4732302;30;20248;-68
2023/11/07 06:56:53;;;;;;;1.20;0.98;;;8.20;1.00;;;8.17;100.00;100372.94;4731484;30;20291;-69
2023/11/07 06:59:25;;;;;;;3.13;1.08;;;8.20;1.00;;;8.15;100.00;100371.44;4733745;30;20204;-65
2023/11/07 07:01:53;;;;;;;5.18;0.80;;;8.20;1.00;;;8.15;100.00;100374.97;4733122;30;20271;-67
2023/11/07 07:04:22;;;;;;;1.65;0.90;;;8.20;1.00;;;8.14;100.00;100370.59;4737401;30;20224;-68
2023/11/07 07:06:51;;;;;;;1.50;1.00;;;8.20;1.00;;;8.24;100.00;100376.47;4738274;30;20494;-67
2023/11/07 07:09:20;;;;;;;1.17;0.82;;;8.20;1.00;;;8.26;100.00;100370.88;4737737;30;20204;-67
2023/11/07 07:11:49;;;;;;;1.65;1.13;;;8.20;1.00;;;8.51;100.00;100369.38;4737410;30;20228;-67
2023/11/07 07:14:19;;;;;;;2.35;1.27;;;8.40;1.00;;;8.51;100.00;100365.84;4736995;30;20247;-68
2023/11/07 07:16:48;;;;;;;1.95;0.90;;;8.40;99.90;;;8.50;100.00;100361.50;4736692;30;20231;-67
2023/11/07 07:19:18;;;;;;;3.15;1.38;;;8.50;99.90;;;8.62;100.00;100376.03;4736865;30;20271;-66
2023/11/07 07:21:47;;;;;;;3.30;1.02;;;8.50;99.90;;;8.59;100.00;100374.59;4750761;30;20594;-68
2023/11/07 07:24:21;;;;;;;3.20;0.93;;;8.60;99.90;;;8.54;100.00;100370.84;4736094;30;20227;-67
2023/11/07 07:26:50;;;;;;;1.42;0.95;;;8.50;1.00;;;8.58;100.00;100374.78;4737047;30;20223;-69
2023/11/07 07:29:21;;;;;;;1.67;1.20;;;8.50;1.00;;;8.69;100.00;100388.53;4750023;30;20204;-68
2023/11/07 07:31:51;;;;;;;1.75;0.90;;;8.60;1.00;;;8.83;100.00;100386.72;4736928;30;20192;-68
2023/11/07 07:34:21;;;;;;;2.80;1.15;;;8.70;1.00;;;8.97;100.00;100391.09;4737083;30;20236;-68
2023/11/07 07:36:50;;;;;;;0.95;0.70;;;8.80;1.00;;;8.97;100.00;100401.91;4736539;30;20590;-69
2023/11/07 07:39:28;;;;;;;4.63;1.30;;;8.80;1.00;;;9.08;100.00;100395.91;4736630;30;20283;-67
2023/11/07 07:42:01;;;;;;;1.65;1.13;;;9.00;1.00;;;9.20;100.00;100400.72;4736540;30;20196;-67
2023/11/07 07:44:32;;;;;;;2.25;1.40;;;9.00;1.00;;;9.27;100.00;100396.16;4736644;30;20750;-68
2023/11/07 07:47:01;;;;;;;1.65;0.80;;;9.10;99.90;;;9.33;100.00;100406.13;4736263;30;20204;-69
2023/11/07 07:49:31;;;;;;;1.10;0.90;;;9.20;99.90;;;9.28;100.00;100400.50;4736570;30;20200;-68
2023/11/07 07:52:01;;;;;;;2.13;1.27;;;9.30;99.90;;;9.53;100.00;100406.97;4735669;30;20533;-67
2023/11/07 07:54:30;;;;;;;2.60;0.90;;;9.40;99.90;;;9.52;100.00;100399.91;4736344;30;20224;-69
2023/11/07 07:57:19;;;;;;;1.48;0.90;;;9.40;18.60;;;9.67;100.00;100397.84;4736454;30;20747;-69
2023/11/07 07:59:49;;;;;;;1.30;0.77;;;9.50;1.00;;;9.67;100.00;100397.84;4736133;30;20446;-69
2023/11/07 08:02:18;;;;;;;1.47;1.00;;;9.60;99.90;;;9.71;100.00;100399.09;4734495;30;20212;-67
2023/11/07 08:04:56;;;;;;;2.17;1.73;;;9.60;99.90;;;9.71;100.00;100400.94;4736011;30;20638;-69
2023/11/07 08:07:27;;;;;;;1.23;0.80;;;9.60;82.90;;;9.71;100.00;100407.19;4735579;30;20204;-69
2023/11/07 08:09:55;;;;;;;1.20;1.00;;;9.60;1.00;;;9.89;100.00;100407.38;4735488;30;20196;-67
2023/11/07 08:12:27;;;;;;;1.50;1.20;;;9.70;21.20;;;9.92;99.61;100406.13;4735353;30;20445;-68
2023/11/07 08:14:57;;;;;;;1.77;0.70;;;9.80;1.00;;;10.08;99.29;100400.28;4736175;30;20471;-69
2023/11/07 08:17:26;;;;;;;2.65;0.80;;;9.90;1.00;;;10.23;97.94;100411.72;4735849;30;20242;-67
2023/11/07 08:19:55;;;;;;;1.93;1.03;;;10.00;1.00;;;10.29;97.63;100402.75;4735382;30;20200;-66
2023/11/07 08:22:28;;;;;;;1.37;1.10;;;10.10;99.90;;;10.34;95.89;100408.38;4748274;30;20486;-68
2023/11/07 08:24:58;;;;;;;1.27;1.13;;;10.20;50.30;;;10.44;95.57;100416.03;4735345;30;20413;-69
2023/11/07 08:27:27;;;;;;;1.33;0.80;;;10.30;1.00;;;10.48;95.85;100411.88;4748787;30;20462;-68
2023/11/07 08:30:01;;;;;;;2.50;1.43;;;10.30;27.40;;;10.41;95.26;100411.88;4735381;30;20443;-68
2023/11/07 08:32:30;;;;;;;1.53;1.23;;;10.30;1.00;;;10.63;94.44;100425.13;4735369;30;20458;-69
2023/11/07 08:34:59;;;;;;;1.10;1.00;;;10.40;1.00;;;10.57;93.68;100421.41;4735451;30;20475;-67
2023/11/07 08:37:28;;;;;;;13.00;0.93;;;10.40;1.00;;;10.78;93.50;100421.13;4735477;30;20432;-68
2023/11/07 08:39:57;;;;;;;1.13;0.93;;;10.60;1.00;;;10.98;91.60;100423.75;4735377;30;20530;-68
2023/11/07 08:42:26;;;;;;;8.97;1.97;;;10.70;1.00;;;11.04;91.28;100419.31;4735589;30;20471;-67
2023/11/07 08:44:55;;;;;;;1.50;0.73;;;10.80;1.00;;;11.11;90.71;100420.13;4737290;30;20438;-69
2023/11/07 08:47:25;;;;;;;2.43;0.70;;;10.90;99.90;;;11.01;89.99;100414.34;4736399;30;20496;-67
2023/11/07 08:49:57;;;;;;;5.27;1.00;;;10.80;99.90;;;11.27;89.19;100428.56;4733996;30;20487;-67
2023/11/07 08:52:26;;;;;;;1.63;0.80;;;11.00;99.90;;;11.34;88.24;100428.50;4735000;30;20524;-69
2023/11/07 08:54:55;;;;;;;3.47;1.10;;;11.10;99.90;;;11.50;87.65;100428.00;4735294;30;20475;-68
2023/11/07 08:57:26;;;;;;;1.80;0.80;;;11.20;99.90;;;11.63;86.08;100427.88;4735189;30;20541;-68
2023/11/07 08:59:55;;;;;;;1.93;0.73;;;11.40;99.90;;;11.64;85.39;100423.31;4735928;30;20453;-67
2023/11/07 09:02:25;;;;;;;1.67;0.90;;;11.50;99.90;;;12.00;83.29;100430.75;4736026;30;20934;-68
2023/11/07 09:04:54;;;;;;;5.07;1.33;;;11.70;69.80;;;12.04;83.14;100438.22;4735819;30;21029;-67
2023/11/07 09:07:23;;;;;;;2.50;0.90;;;11.70;62.10;;;12.17;82.36;100431.81;4735460;30;20516;-68
2023/11/07 09:09:54;;;;;;;0.93;0.67;;;11.90;13.80;;;12.33;80.37;100431.25;4736269;30;20454;-68
2023/11/07 09:12:23;;;;;;;3.43;1.03;;;12.10;21.60;;;12.52;79.35;100432.09;4735049;30;20807;-67
2023/11/07 09:14:52;;;;;;;1.80;0.83;;;12.20;1.00;;;12.72;78.67;100442.72;4732144;30;20445;-67
2023/11/07 09:17:21;;;;;;;1.10;0.90;;;12.40;30.20;;;12.71;77.72;100441.88;4738373;30;20478;-68
2023/11/07 09:19:51;;;;;;;1.30;0.90;;;12.50;1.00;;;12.77;77.38;100442.88;4737544;30;20449;-69
2023/11/07 09:22:22;;;;;;;1.13;0.80;;;12.50;42.70;;;12.78;77.46;100442.63;4736396;30;20440;-69
2023/11/07 09:24:52;;;;;;;2.50;0.90;;;12.60;54.90;;;13.00;76.39;100443.81;4729627;30;20974;-67
2023/11/07 09:27:20;;;;;;;5.17;0.87;;;12.70;99.90;;;12.96;76.15;100450.78;4734637;30;20504;-66
2023/11/07 09:29:55;;;;;;;2.03;0.90;;;12.70;99.90;;;12.84;75.97;100449.03;4734961;30;20416;-68
2023/11/07 09:32:26;;;;;;;1.40;0.70;;;12.70;99.90;;;12.77;75.96;100454.56;4734604;30;20482;-68
2023/11/07 09:34:57;;;;;;;4.80;1.00;;;12.50;99.90;;;12.72;76.44;100459.00;4730370;30;20457;-67
2023/11/07 09:37:26;;;;;;;1.30;1.00;;;12.60;99.90;;;12.64;76.77;100452.81;4735511;30;20447;-69
2023/11/07 09:39:55;;;;;;;2.07;0.83;;;12.50;99.90;;;12.66;77.62;100449.88;4736619;30;20435;-68
2023/11/07 09:42:23;;;;;;;3.27;0.93;;;12.40;1.00;;;12.77;76.37;100456.44;4735801;30;20433;-68
2023/11/07 09:44:53;;;;;;;2.10;0.90;;;12.50;1.00;;;12.64;76.65;100458.25;4736163;30;20434;-68
2023/11/07 09:47:23;;;;;;;1.80;1.20;;;12.50;1.00;;;12.53;76.99;100450.03;4732157;30;20437;-69
2023/11/07 09:49:55;;;;;;;1.67;1.20;;;12.40;1.00;;;12.43;77.38;100447.84;4748727;30;21006;-68
2023/11/07 09:52:26;;;;;;;1.10;0.90;;;12.40;61.80;;;12.36;78.22;100444.38;4734817;30;20442;-68
2023/11/07 09:54:58;;;;;;;2.03;1.60;;;12.20;1.00;;;12.40;78.31;100444.72;4735790;30;20510;-68
2023/11/07 09:57:28;;;;;;;2.30;1.00;;;12.20;1.00;;;12.50;77.61;100436.91;4735255;30;20486;-67
2023/11/07 10:00:02;;;;;;;2.80;1.07;;;12.30;99.90;;;12.86;76.37;100450.47;4731724;30;20457;-67
2023/11/07 10:02:34;;;;;;;1.10;0.70;;;12.50;24.40;;;13.01;74.78;100450.09;4734637;30;20437;-68
2023/11/07 10:05:06;;;;;;;1.67;1.07;;;12.70;99.90;;;13.20;74.26;100440.03;4734928;30;20439;-67
2023/11/07 10:07:38;;;;;;;1.20;0.67;;;12.80;99.90;;;13.29;73.78;100450.34;4734896;30;20466;-69
2023/11/07 10:10:10;;;;;;;1.37;0.70;;;13.00;99.90;;;13.46;74.12;100447.78;4735128;30;20476;-68
2023/11/07 10:12:43;;;;;;;3.00;0.80;;;13.10;99.90;;;13.54;72.12;100452.09;4733920;30;20430;-68
2023/11/07 10:15:18;;;;;;;2.60;1.20;;;13.30;1.00;;;13.32;73.74;100441.72;4733817;30;20817;-68
2023/11/07 10:18:06;;;;;;;1.33;0.80;;;13.20;1.00;;;13.21;73.92;100442.53;4733719;30;20905;-68
2023/11/07 10:20:36;;;;;;;1.43;1.33;;;13.10;99.90;;;13.18;73.66;100442.97;4732753;30;20545;-70
2023/11/07 10:23:12;;;;;;;1.53;0.80;;;13.00;99.90;;;13.49;73.35;100445.47;4734254;30;20473;-68
2023/11/07 10:25:41;;;;;;;3.00;1.00;;;13.20;99.90;;;13.71;71.09;100444.91;4733763;30;20456;-68
2023/11/07 10:28:10;;;;;;;3.63;1.20;;;13.40;99.90;;;13.77;70.63;100441.25;4734035;30;20432;-67
2023/11/07 10:30:45;;;;;;;2.57;1.27;;;13.50;99.90;;;14.22;70.16;100439.66;4734467;30;20419;-68
2023/11/07 10:33:27;;;;;;;1.57;1.00;;;;;;;14.52;67.78;100444.16;4733954;30;21025;-67
2023/11/07 10:35:58;;;;;;;3.90;1.40;;;;;;;14.80;66.89;100436.06;4742745;30;20543;-68
2023/11/07 10:38:31;;;;;;;1.20;0.60;;;;;;;14.52;67.15;100438.72;4737407;30;20446;-69
2023/11/07 10:41:02;;;;;;;1.10;0.70;;;;;;;14.12;68.50;100444.84;4737422;30;20496;-67